createdAt,value
2018-03-28T00:01:36.417Z,74.89
2018-03-28T00:04:07.123Z,74.64
2018-03-28T00:06:37.790Z,74.68
2018-03-28T00:09:08.547Z,74.46
2018-03-28T00:11:39.199Z,74.51
2018-03-28T00:14:09.842Z,74.40
2018-03-28T00:16:40.718Z,74.31
2018-03-28T00:19:11.732Z,74.19
2018-03-28T00:21:42.358Z,73.99
2018-03-28T00:24:13.158Z,74.26
2018-03-28T00:26:43.806Z,74.25
2018-03-28T00:29:14.739Z,74.78
2018-03-28T00:31:46.263Z,74.90
2018-03-28T00:34:16.853Z,74.91
2018-03-28T00:36:47.756Z,74.90
2018-03-28T00:39:18.799Z,74.72
2018-03-28T00:41:49.741Z,74.31
2018-03-28T00:44:20.806Z,74.68
2018-03-28T00:46:52.197Z,74.92
2018-03-28T00:49:22.932Z,75.22
2018-03-28T00:51:55.536Z,74.73
2018-03-28T00:54:25.414Z,74.61
2018-03-28T00:56:56.100Z,74.98
2018-03-28T00:59:26.107Z,75.27
2018-03-28T01:01:56.776Z,75.73
2018-03-28T01:04:27.820Z,76.05
2018-03-28T01:06:58.666Z,75.74
2018-03-28T01:09:29.786Z,75.61
2018-03-28T01:12:00.746Z,75.44
2018-03-28T01:14:31.770Z,75.02
2018-03-28T01:17:02.652Z,75.02
2018-03-28T01:19:33.786Z,75.41
2018-03-28T01:22:04.848Z,75.25
2018-03-28T01:24:35.728Z,75.68
2018-03-28T01:27:06.703Z,75.83
2018-03-28T01:29:37.801Z,75.69
2018-03-28T01:32:08.974Z,75.15
2018-03-28T01:34:39.835Z,75.59
2018-03-28T01:37:10.743Z,75.44
2018-03-28T01:39:41.450Z,74.96
2018-03-28T01:42:11.847Z,75.85
2018-03-28T01:44:42.425Z,75.44
2018-03-28T01:47:13.077Z,75.61
2018-03-28T01:49:43.951Z,77.95
2018-03-28T01:52:14.595Z,77.02
2018-03-28T01:54:45.512Z,77.89
2018-03-28T01:57:16.504Z,78.03
2018-03-28T01:59:47.571Z,77.12
2018-03-28T02:02:18.555Z,77.69
2018-03-28T02:04:49.617Z,78.01
2018-03-28T02:07:20.609Z,77.86
2018-03-28T02:09:51.639Z,78.19
2018-03-28T02:12:22.608Z,77.64
2018-03-28T02:14:53.655Z,78.68
2018-03-28T02:17:24.630Z,78.01
2018-03-28T02:19:55.726Z,77.85
2018-03-28T02:22:26.722Z,78.48
2018-03-28T02:25:02.898Z,78.62
2018-03-28T02:27:32.133Z,78.99
2018-03-28T02:30:01.503Z,78.71
2018-03-28T02:32:31.287Z,78.41
2018-03-28T02:35:01.844Z,77.93
2018-03-28T02:37:32.726Z,77.50
2018-03-28T02:40:03.799Z,78.15
2018-03-28T02:42:34.514Z,77.86
2018-03-28T02:45:04.862Z,78.01
2018-03-28T02:47:35.328Z,77.94
2018-03-28T02:50:06.338Z,77.93
2018-03-28T02:52:37.112Z,78.20
2018-03-28T02:55:08.079Z,78.86
2018-03-28T02:57:38.938Z,79.43
2018-03-28T03:00:10.032Z,79.31
2018-03-28T03:02:40.926Z,79.85
2018-03-28T03:05:12.020Z,79.99
2018-03-28T03:07:42.991Z,79.80
2018-03-28T03:10:14.012Z,80.32
2018-03-28T03:12:44.948Z,80.21
2018-03-28T03:15:15.967Z,79.88
2018-03-28T03:17:46.934Z,79.88
2018-03-28T03:20:18.014Z,80.12
2018-03-28T03:22:49.000Z,79.68
2018-03-28T03:25:20.578Z,79.29
2018-03-28T03:27:51.215Z,78.95
2018-03-28T03:30:22.448Z,78.62
2018-03-28T03:32:53.447Z,79.32
2018-03-28T03:35:24.939Z,78.80
2018-03-28T03:37:55.738Z,78.79
2018-03-28T03:40:26.796Z,79.45
2018-03-28T03:42:57.290Z,79.42
2018-03-28T03:45:27.842Z,79.09
2018-03-28T03:47:58.720Z,79.58
2018-03-28T03:50:29.823Z,79.56
2018-03-28T03:53:00.737Z,79.13
2018-03-28T03:55:31.805Z,78.80
2018-03-28T03:58:02.759Z,78.59
2018-03-28T04:00:33.443Z,78.12
2018-03-28T04:03:04.124Z,78.07
2018-03-28T04:05:34.762Z,77.95
2018-03-28T04:08:05.644Z,78.20
2018-03-28T04:10:36.738Z,77.89
2018-03-28T04:13:07.660Z,77.74
2018-03-28T04:15:38.338Z,77.76
2018-03-28T04:18:08.789Z,77.65
2018-03-28T04:20:39.747Z,78.56
2018-03-28T04:23:10.720Z,78.08
2018-03-28T04:25:41.775Z,77.98
2018-03-28T04:28:12.960Z,77.75
2018-03-28T04:30:44.180Z,77.97
2018-03-28T04:33:15.050Z,78.19
2018-03-28T04:35:45.810Z,78.01
2018-03-28T04:38:16.440Z,78.21
2018-03-28T04:40:47.114Z,78.18
2018-03-28T04:43:16.998Z,78.19
2018-03-28T04:45:47.823Z,78.04
2018-03-28T04:48:18.732Z,77.76
2018-03-28T04:50:50.008Z,77.62
2018-03-28T04:53:20.720Z,77.31
2018-03-28T04:55:51.749Z,77.35
2018-03-28T04:58:22.726Z,78.46
2018-03-28T05:00:53.795Z,78.65
2018-03-28T05:03:24.387Z,78.60
2018-03-28T05:05:55.035Z,78.04
2018-03-28T05:08:25.749Z,77.94
2018-03-28T05:10:56.267Z,77.61
2018-03-28T05:13:26.778Z,77.36
2018-03-28T05:15:57.865Z,77.42
2018-03-28T05:18:28.353Z,77.66
2018-03-28T05:20:59.130Z,77.35
2018-03-28T05:23:29.786Z,77.46
2018-03-28T05:26:00.528Z,77.19
2018-03-28T05:28:31.187Z,77.23
2018-03-28T05:31:01.856Z,77.17
2018-03-28T05:33:32.263Z,77.71
2018-03-28T05:36:03.282Z,77.57
2018-03-28T05:38:33.870Z,77.54
2018-03-28T05:41:04.872Z,77.74
2018-03-28T05:43:35.840Z,77.59
2018-03-28T05:46:06.435Z,78.00
2018-03-28T05:48:37.033Z,77.73
2018-03-28T05:51:07.889Z,78.10
2018-03-28T05:53:38.380Z,78.12
2018-03-28T05:56:08.846Z,77.76
2018-03-28T05:58:39.721Z,78.32
2018-03-28T06:01:10.459Z,78.08
2018-03-28T06:03:41.452Z,78.21
2018-03-28T06:06:12.512Z,78.02
2018-03-28T06:08:43.508Z,77.50
2018-03-28T06:11:14.219Z,77.56
2018-03-28T06:13:44.720Z,77.90
2018-03-28T06:16:15.779Z,78.00
2018-03-28T06:18:46.743Z,77.82
2018-03-28T06:21:17.472Z,78.00
2018-03-28T06:23:48.141Z,78.75
2018-03-28T06:26:18.050Z,78.61
2018-03-28T06:28:48.706Z,78.82
2018-03-28T06:31:19.256Z,78.40
2018-03-28T06:33:49.793Z,78.58
2018-03-28T06:36:20.689Z,78.29
2018-03-28T06:38:51.644Z,78.65
2018-03-28T06:41:22.362Z,78.67
2018-03-28T06:43:53.012Z,78.65
2018-03-28T06:46:23.804Z,78.80
2018-03-28T06:48:54.638Z,78.76
2018-03-28T06:51:25.739Z,79.19
2018-03-28T06:53:56.707Z,79.00
2018-03-28T06:56:27.754Z,78.85
2018-03-28T06:58:58.749Z,78.32
2018-03-28T07:01:35.090Z,78.64
2018-03-28T07:04:04.363Z,78.49
2018-03-28T07:06:33.873Z,78.32
2018-03-28T07:09:03.302Z,78.19
2018-03-28T07:11:33.920Z,78.27
2018-03-28T07:14:04.733Z,78.04
2018-03-28T07:16:35.860Z,78.02
2018-03-28T07:19:06.726Z,78.02
2018-03-28T07:21:37.702Z,77.68
2018-03-28T07:24:08.435Z,78.13
2018-03-28T07:26:39.548Z,77.95
2018-03-28T07:29:10.548Z,77.48
2018-03-28T07:31:42.208Z,76.91
2018-03-28T07:34:12.879Z,76.76
2018-03-28T07:36:43.756Z,76.80
2018-03-28T07:39:14.768Z,76.58
2018-03-28T07:41:45.708Z,76.50
2018-03-28T07:44:16.745Z,76.28
2018-03-28T07:46:47.726Z,75.77
2018-03-28T07:49:18.688Z,75.14
2018-03-28T07:51:49.861Z,75.04
2018-03-28T07:54:20.701Z,74.28
2018-03-28T07:56:51.885Z,74.06
2018-03-28T07:59:22.418Z,74.28
2018-03-28T08:01:53.093Z,74.69
2018-03-28T08:04:23.815Z,73.69
2018-03-28T08:06:55.663Z,73.91
2018-03-28T08:09:26.294Z,74.27
2018-03-28T08:11:56.786Z,74.17
2018-03-28T08:14:27.701Z,74.19
2018-03-28T08:16:58.774Z,74.13
2018-03-28T08:19:29.699Z,73.49
2018-03-28T08:22:00.740Z,73.74
2018-03-28T08:24:31.673Z,73.63
2018-03-28T08:27:03.067Z,73.46
2018-03-28T08:29:33.790Z,73.42
2018-03-28T08:32:04.323Z,73.42
2018-03-28T08:34:34.852Z,73.29
2018-03-28T08:37:05.744Z,73.11
2018-03-28T08:39:36.750Z,72.74
2018-03-28T08:42:07.749Z,72.96
2018-03-28T08:44:38.752Z,72.76
2018-03-28T08:47:09.890Z,72.41
2018-03-28T08:49:40.720Z,72.24
2018-03-28T08:52:11.962Z,72.03
2018-03-28T08:54:42.489Z,72.03
2018-03-28T08:57:13.582Z,71.94
2018-03-28T08:59:44.587Z,71.23
2018-03-28T09:02:15.751Z,70.82
2018-03-28T09:04:46.817Z,70.78
2018-03-28T09:07:17.817Z,70.68
2018-03-28T09:09:48.372Z,70.18
2018-03-28T09:12:19.154Z,69.48
2018-03-28T09:14:49.822Z,69.94
2018-03-28T09:17:20.822Z,69.62
2018-03-28T09:19:51.699Z,69.92
2018-03-28T09:22:22.390Z,69.79
2018-03-28T09:24:53.140Z,69.58
2018-03-28T09:27:23.850Z,69.75
2018-03-28T09:29:54.756Z,69.67
2018-03-28T09:32:25.471Z,69.18
2018-03-28T09:34:56.185Z,69.43
2018-03-28T09:37:26.853Z,68.95
2018-03-28T09:39:57.704Z,68.86
2018-03-28T09:42:28.760Z,68.92
2018-03-28T09:44:59.664Z,68.81
2018-03-28T09:47:30.763Z,68.96
2018-03-28T09:50:01.650Z,68.78
2018-03-28T09:52:32.824Z,68.62
2018-03-28T09:55:03.702Z,68.65
2018-03-28T09:57:34.408Z,68.99
2018-03-28T10:00:04.515Z,68.73
2018-03-28T10:02:41.102Z,68.74
2018-03-28T10:05:11.375Z,69.03
2018-03-28T10:07:40.667Z,69.24
2018-03-28T10:10:10.608Z,69.13
2018-03-28T10:12:40.140Z,68.83
2018-03-28T10:15:10.877Z,68.67
2018-03-28T10:17:41.769Z,68.48
2018-03-28T10:20:12.861Z,68.63
2018-03-28T10:22:43.783Z,68.55
2018-03-28T10:25:14.901Z,68.05
2018-03-28T10:27:45.432Z,68.50
2018-03-28T10:30:16.178Z,68.11
2018-03-28T10:32:46.818Z,68.05
2018-03-28T10:35:17.768Z,68.17
2018-03-28T10:37:48.787Z,67.97
2018-03-28T10:40:19.813Z,67.41
2018-03-28T10:42:50.721Z,66.73
2018-03-28T10:45:21.806Z,66.69
2018-03-28T10:47:52.690Z,65.23
2018-03-28T10:50:23.759Z,64.85
2018-03-28T10:52:54.672Z,64.97
2018-03-28T10:55:25.735Z,64.79
2018-03-28T10:57:56.715Z,64.11
2018-03-28T11:00:27.767Z,63.65
2018-03-28T11:02:59.087Z,63.09
2018-03-28T11:05:29.927Z,63.02
2018-03-28T11:08:00.771Z,63.25
2018-03-28T11:10:31.776Z,62.85
2018-03-28T11:13:02.348Z,62.79
2018-03-28T11:15:32.913Z,62.50
2018-03-28T11:18:03.719Z,62.51
2018-03-28T11:20:34.514Z,62.46
2018-03-28T11:23:05.182Z,62.54
2018-03-28T11:25:35.857Z,61.85
2018-03-28T11:28:06.766Z,61.87
2018-03-28T11:30:37.728Z,60.92
2018-03-28T11:33:08.670Z,61.20
2018-03-28T11:35:39.728Z,61.26
2018-03-28T11:38:14.488Z,61.25
2018-03-28T11:40:43.998Z,61.01
2018-03-28T11:43:13.320Z,61.34
2018-03-28T11:45:44.135Z,61.31
2018-03-28T11:48:14.852Z,61.20
2018-03-28T11:50:45.792Z,60.65
2018-03-28T11:53:16.676Z,60.71
2018-03-28T11:55:47.739Z,60.95
2018-03-28T11:58:21.682Z,60.37
2018-03-28T12:00:51.259Z,59.65
2018-03-28T12:03:20.524Z,60.04
2018-03-28T12:05:51.334Z,59.76
2018-03-28T12:08:22.057Z,59.22
2018-03-28T12:10:52.166Z,59.33
2018-03-28T12:13:22.778Z,59.41
2018-03-28T12:15:53.417Z,59.03
2018-03-28T12:18:24.044Z,58.87
2018-03-28T12:20:54.862Z,58.36
2018-03-28T12:23:28.019Z,58.65
2018-03-28T12:25:57.477Z,58.47
2018-03-28T12:28:28.402Z,58.86
2018-03-28T12:30:59.199Z,58.73
2018-03-28T12:33:29.751Z,58.81
2018-03-28T12:36:00.834Z,58.14
2018-03-28T12:38:31.686Z,57.51
2018-03-28T12:41:02.762Z,57.46
2018-03-28T12:43:33.394Z,57.51
2018-03-28T12:46:04.094Z,57.99
2018-03-28T12:48:34.710Z,57.76
2018-03-28T12:51:05.811Z,57.65
2018-03-28T12:53:36.684Z,57.39
2018-03-28T12:56:07.786Z,57.59
2018-03-28T12:58:38.416Z,56.95
2018-03-28T13:01:09.137Z,56.76
2018-03-28T13:03:39.815Z,55.84
2018-03-28T13:06:10.829Z,55.78
2018-03-28T13:08:41.746Z,55.79
2018-03-28T13:11:12.892Z,55.69
2018-03-28T13:13:43.736Z,55.58
2018-03-28T13:16:14.724Z,55.58
2018-03-28T13:18:45.699Z,55.83
2018-03-28T13:21:16.390Z,55.69
2018-03-28T13:26:29.074Z,56.53
2018-03-28T13:28:58.308Z,55.99
2018-03-28T13:31:27.669Z,55.99
2018-03-28T13:33:57.092Z,55.64
2018-03-28T13:36:26.405Z,55.86
2018-03-28T13:38:55.658Z,55.78
2018-03-28T13:41:25.040Z,56.74
2018-03-28T13:43:56.056Z,56.95
2018-03-28T13:46:26.189Z,56.44
2018-03-28T13:48:56.741Z,56.45
2018-03-28T13:51:27.808Z,56.29
2018-03-28T13:53:59.455Z,56.60
2018-03-28T13:56:30.131Z,56.11
2018-03-28T13:59:00.715Z,56.09
2018-03-28T14:01:31.374Z,56.29
2018-03-28T14:04:02.087Z,56.55
2018-03-28T14:06:32.918Z,56.38
2018-03-28T14:09:03.759Z,56.52
2018-03-28T14:11:36.237Z,56.94
2018-03-28T14:14:06.143Z,57.94
2018-03-28T14:16:36.847Z,58.71
2018-03-28T14:19:07.701Z,59.24
2018-03-28T14:21:38.735Z,59.73
2018-03-28T14:24:09.746Z,60.53
2018-03-28T14:26:40.795Z,61.13
2018-03-28T14:29:11.653Z,60.87
2018-03-28T14:31:43.384Z,60.92
2018-03-28T14:34:14.099Z,61.73
2018-03-28T14:36:44.085Z,62.33
2018-03-28T14:39:14.945Z,61.87
2018-03-28T14:41:45.836Z,62.30
2018-03-28T14:44:16.647Z,62.22
2018-03-28T14:46:47.750Z,62.41
2018-03-28T14:49:18.763Z,62.66
2018-03-28T14:51:49.881Z,62.41
2018-03-28T14:54:20.760Z,63.26
2018-03-28T14:56:51.865Z,63.33
2018-03-28T14:59:22.771Z,63.69
2018-03-28T15:01:53.839Z,63.69
2018-03-28T15:04:24.717Z,63.45
2018-03-28T15:06:55.768Z,63.08
2018-03-28T15:09:26.772Z,62.93
2018-03-28T15:11:57.788Z,63.23
2018-03-28T15:14:30.336Z,63.06
2018-03-28T15:16:59.723Z,63.23
2018-03-28T15:19:30.382Z,63.85
2018-03-28T15:22:01.152Z,63.70
2018-03-28T15:24:31.839Z,62.23
2018-03-28T15:27:03.154Z,62.02
2018-03-28T15:29:33.813Z,60.40
2018-03-28T15:32:05.421Z,60.29
2018-03-28T15:34:36.041Z,60.70
2018-03-28T15:37:06.827Z,61.35
2018-03-28T15:39:37.431Z,60.82
2018-03-28T15:42:08.169Z,61.72
2018-03-28T15:44:38.724Z,62.52
2018-03-28T15:47:09.924Z,63.55
2018-03-28T15:49:40.692Z,64.66
2018-03-28T15:52:11.804Z,63.93
2018-03-28T15:54:42.840Z,63.50
2018-03-28T15:57:13.756Z,61.51
2018-03-28T15:59:44.652Z,60.73
2018-03-28T16:02:15.732Z,60.44
2018-03-28T16:04:46.736Z,59.96
2018-03-28T16:07:17.637Z,61.76
2018-03-28T16:09:49.303Z,63.28
2018-03-28T16:12:20.160Z,64.96
2018-03-28T16:14:50.426Z,65.07
2018-03-28T16:17:21.118Z,66.77
2018-03-28T16:19:51.735Z,67.60
2018-03-28T16:22:22.788Z,68.08
2018-03-28T16:24:53.700Z,68.08
2018-03-28T16:27:24.785Z,68.62
2018-03-28T16:29:55.656Z,68.85
2018-03-28T16:32:26.727Z,69.75
2018-03-28T16:34:57.714Z,69.80
2018-03-28T16:37:28.784Z,70.67
2018-03-28T16:39:59.803Z,70.34
2018-03-28T16:42:30.908Z,71.05
2018-03-28T16:45:01.747Z,71.13
2018-03-28T16:47:32.859Z,71.50
2018-03-28T16:50:03.694Z,71.94
2018-03-28T16:52:34.811Z,72.07
2018-03-28T16:55:05.419Z,71.99
2018-03-28T16:57:36.149Z,72.68
2018-03-28T17:00:06.849Z,72.43
2018-03-28T17:02:37.735Z,72.64
2018-03-28T17:05:08.752Z,72.88
2018-03-28T17:07:39.885Z,73.18
2018-03-28T17:10:10.753Z,72.53
2018-03-28T17:12:41.862Z,72.85
2018-03-28T17:15:12.726Z,72.78
2018-03-28T17:17:43.718Z,72.81
2018-03-28T17:20:14.731Z,73.32
2018-03-28T17:22:45.782Z,73.79
2018-03-28T17:25:16.822Z,73.88
2018-03-28T17:27:47.817Z,73.72
2018-03-28T17:30:18.655Z,73.37
2018-03-28T17:32:49.735Z,73.35
2018-03-28T17:35:20.392Z,73.47
2018-03-28T17:37:51.177Z,73.60
2018-03-28T17:40:21.846Z,73.72
2018-03-28T17:42:52.820Z,73.60
2018-03-28T17:45:23.695Z,73.79
2018-03-28T17:47:54.800Z,74.19
2018-03-28T17:50:26.152Z,73.73
2018-03-28T17:52:57.194Z,74.42
2018-03-28T17:55:28.100Z,74.42
2018-03-28T17:57:58.812Z,73.87
2018-03-28T18:00:29.508Z,73.92
2018-03-28T18:03:00.646Z,73.92
2018-03-28T18:05:31.649Z,73.50
2018-03-28T18:08:02.756Z,73.77
2018-03-28T18:10:33.759Z,74.45
2018-03-28T18:13:04.761Z,74.15
2018-03-28T18:15:35.722Z,74.35
2018-03-28T18:18:06.728Z,74.91
2018-03-28T18:20:37.341Z,74.83
2018-03-28T18:23:08.128Z,74.89
2018-03-28T18:25:38.843Z,75.00
2018-03-28T18:28:09.923Z,74.95
2018-03-28T18:30:40.802Z,74.70
2018-03-28T18:33:11.802Z,74.54
2018-03-28T18:35:42.700Z,74.81
2018-03-28T18:38:13.771Z,74.72
2018-03-28T18:40:44.390Z,74.33
2018-03-28T18:43:15.374Z,74.61
2018-03-28T18:45:46.064Z,74.62
2018-03-28T18:48:17.636Z,74.63
2018-03-28T18:50:49.734Z,74.59
2018-03-28T18:53:19.613Z,74.49
2018-03-28T18:55:50.396Z,74.29
2018-03-28T18:58:21.046Z,73.98
2018-03-28T19:00:51.839Z,74.29
2018-03-28T19:03:22.475Z,74.22
2018-03-28T19:05:53.586Z,74.01
2018-03-28T19:08:24.527Z,73.90
2018-03-28T19:10:55.262Z,73.85
2018-03-28T19:13:25.810Z,74.05
2018-03-28T19:15:56.880Z,73.88
2018-03-28T19:18:27.738Z,73.47
2018-03-28T19:20:58.936Z,73.65
2018-03-28T19:23:29.772Z,73.58
2018-03-28T19:26:00.848Z,72.97
2018-03-28T19:28:31.710Z,72.88
2018-03-28T19:31:02.797Z,72.66
2018-03-28T19:33:33.864Z,72.91
2018-03-28T19:36:04.803Z,72.91
2018-03-28T19:38:35.505Z,72.94
2018-03-28T19:41:06.354Z,72.98
2018-03-28T19:43:36.106Z,72.91
2018-03-28T19:46:06.901Z,72.83
2018-03-28T19:48:37.703Z,73.01
2018-03-28T19:51:08.864Z,72.70
2018-03-28T19:53:39.663Z,73.11
2018-03-28T19:56:10.778Z,73.16
2018-03-28T19:58:41.656Z,73.25
2018-03-28T20:01:12.858Z,73.26
2018-03-28T20:03:43.334Z,73.57
2018-03-28T20:06:14.114Z,73.26
2018-03-28T20:08:45.090Z,73.33
2018-03-28T20:11:16.254Z,73.50
2018-03-28T20:13:46.082Z,73.88
2018-03-28T20:16:16.807Z,73.70
2018-03-28T20:18:47.356Z,73.77
2018-03-28T20:21:18.092Z,73.85
2018-03-28T20:23:48.751Z,74.21
2018-03-28T20:26:19.827Z,74.28
2018-03-28T20:28:50.734Z,74.42
2018-03-28T20:31:21.840Z,74.22
2018-03-28T20:33:52.782Z,74.56
2018-03-28T20:36:23.777Z,74.34
2018-03-28T20:38:54.634Z,74.26
2018-03-28T20:41:25.689Z,74.50
2018-03-28T20:43:56.701Z,74.81
2018-03-28T20:46:27.777Z,74.84
2018-03-28T20:48:58.793Z,75.05
2018-03-28T20:51:29.837Z,74.99
2018-03-28T20:54:00.705Z,74.93
2018-03-28T20:56:31.787Z,74.89
2018-03-28T20:59:02.980Z,74.86
2018-03-28T21:01:33.816Z,74.86
2018-03-28T21:04:04.855Z,74.81
2018-03-28T21:06:35.329Z,74.86
2018-03-28T21:09:05.469Z,74.69
2018-03-28T21:11:36.637Z,74.71
2018-03-28T21:14:07.605Z,74.83
2018-03-28T21:16:38.228Z,75.07
2018-03-28T21:19:08.488Z,74.81
2018-03-28T21:21:40.797Z,75.14
2018-03-28T21:24:11.256Z,74.77
2018-03-28T21:26:41.760Z,74.71
2018-03-28T21:29:12.633Z,74.44
2018-03-28T21:31:43.622Z,74.64
2018-03-28T21:34:14.637Z,74.63
2018-03-28T21:36:46.441Z,74.27
2018-03-28T21:39:16.069Z,74.15
2018-03-28T21:41:46.859Z,73.95
2018-03-28T21:44:17.710Z,73.95
2018-03-28T21:46:48.703Z,73.50
2018-03-28T21:49:19.630Z,73.67
2018-03-28T21:51:50.867Z,73.65
2018-03-28T21:54:21.709Z,73.82
2018-03-28T21:56:52.822Z,74.02
2018-03-28T21:59:23.788Z,74.78
2018-03-28T22:01:54.768Z,74.54
2018-03-28T22:04:25.400Z,74.92
2018-03-28T22:06:56.058Z,75.05
2018-03-28T22:09:26.748Z,75.44
2018-03-28T22:11:57.812Z,75.70
2018-03-28T22:14:28.683Z,75.74
2018-03-28T22:16:59.315Z,75.96
2018-03-28T22:19:29.724Z,76.36
2018-03-28T22:22:00.480Z,76.97
2018-03-28T22:24:31.231Z,76.62
2018-03-28T22:27:01.716Z,77.71
2018-03-28T22:29:32.657Z,77.53
2018-03-28T22:32:04.260Z,78.06
2018-03-28T22:34:34.713Z,79.22
2018-03-28T22:37:05.691Z,78.38
2018-03-28T22:39:36.659Z,78.66
2018-03-28T22:42:07.946Z,78.73
2018-03-28T22:44:38.339Z,79.08
2018-03-28T22:47:09.037Z,79.35
2018-03-28T22:49:39.785Z,79.37
2018-03-28T22:52:10.871Z,79.94
2018-03-28T22:54:41.678Z,80.00
2018-03-28T22:57:12.724Z,80.15
2018-03-28T22:59:43.648Z,79.94
2018-03-28T23:02:14.661Z,80.20
2018-03-28T23:04:45.579Z,80.58
2018-03-28T23:07:16.623Z,80.68
2018-03-28T23:09:47.552Z,80.09
2018-03-28T23:12:18.366Z,80.53
2018-03-28T23:14:49.072Z,80.05
2018-03-28T23:17:19.697Z,79.81
2018-03-28T23:19:50.695Z,79.95
2018-03-28T23:22:32.629Z,79.89
2018-03-28T23:25:01.992Z,79.75
2018-03-28T23:27:30.965Z,80.35
2018-03-28T23:30:00.325Z,79.91
2018-03-28T23:32:29.573Z,79.55
2018-03-28T23:34:58.847Z,79.10
2018-03-28T23:37:28.160Z,79.30
2018-03-28T23:39:58.068Z,79.55
2018-03-28T23:42:28.792Z,79.65
2018-03-28T23:44:59.805Z,79.39
2018-03-28T23:47:30.484Z,79.24
2018-03-28T23:50:01.088Z,79.22
2018-03-28T23:52:31.927Z,79.34
2018-03-28T23:55:02.936Z,79.22
2018-03-28T23:57:33.797Z,78.96
